Terminal Aerodrome Forecast
Issued by NWS

Home | Current Version | Previous Version | Text Only | Print | Product List | Glossary On
Versions: 1 2 3 4 5 6 7 8 9 10 11 12 13 14
000
FTUS45 KTFX 231720
TAFBZN
TAF
KBZN 231720Z 2318/2418 33007KT P6SM FEW060 SCT200
     FM240300 15005KT P6SM SCT200
     FM241200 VRB06KT P6SM SKC=

USA.gov is the U.S. government's official web portal to all federal, state and local government web resources and services.